sensor_id;sensor_type;location;lat;lon;timestamp;pressure;altitude;pressure_sealevel;temperature;humidity
73306;BME280;61530;51.158;0.880;2023-03-23T14:24:15;997.08;;;13.1875;36.963
73306;BME280;61530;51.158;0.880;2023-03-23T14:25:13;996.951;;;13.3125;37.2936
73306;BME280;61530;51.158;0.880;2023-03-23T14:26:19;996.91;;;13.3125;36.1117
73306;BME280;61530;51.158;0.880;2023-03-23T14:27:22;996.971;;;13.1875;37.0782
73306;BME280;61530;51.158;0.880;2023-03-23T14:28:26;997.005;;;13.125;36.8513
73306;BME280;61530;51.158;0.880;2023-03-23T14:29:27;997.003;;;13.1875;35.5921
73306;BME280;61530;51.158;0.880;2023-03-23T14:30:35;996.947;;;13.0;36.0895
73306;BME280;61530;51.158;0.880;2023-03-23T14:31:36;997.011;;;13.0;36.9256
73306;BME280;61530;51.158;0.880;2023-03-23T14:32:40;997.033;;;12.9375;37.1428
73306;BME280;61530;51.158;0.880;2023-03-23T14:33:43;997.007;;;12.9375;37.1263
73306;BME280;61530;51.158;0.880;2023-03-23T14:39:51;996.923;;;12.8125;37.9584
73306;BME280;61530;51.158;0.880;2023-03-23T14:42:17;996.963;;;13.0625;36.0345
73306;BME280;61530;51.158;0.880;2023-03-23T14:43:22;996.892;;;13.1875;36.215
73306;BME280;61530;51.158;0.880;2023-03-23T14:44:28;996.859;;;13.25;36.3707
73306;BME280;61530;51.158;0.880;2023-03-23T14:45:27;996.803;;;13.1875;36.3781
73306;BME280;61530;51.158;0.880;2023-03-23T14:46:31;996.713;;;13.1875;35.8643
73306;BME280;61530;51.158;0.880;2023-03-23T14:47:40;996.702;;;13.3125;35.6741
73306;BME280;61530;51.158;0.880;2023-03-23T14:48:40;996.736;;;13.3125;36.8385
73306;BME280;61530;51.158;0.880;2023-03-23T14:49:44;996.673;;;13.4375;36.3068
73306;BME280;61530;51.158;0.880;2023-03-23T14:50:50;996.696;;;13.375;36.51
73306;BME280;61530;51.158;0.880;2023-03-23T14:51:54;996.71;;;13.25;37.1033
73306;BME280;61530;51.158;0.880;2023-03-23T14:53:00;996.729;;;13.3125;38.073
73306;BME280;61530;51.158;0.880;2023-03-23T14:54:00;996.689;;;13.3125;37.6914
73306;BME280;61530;51.158;0.880;2023-03-23T14:55:13;996.655;;;13.1875;36.5976
73306;BME280;61530;51.158;0.880;2023-03-23T14:56:12;996.581;;;13.1875;36.6653
73306;BME280;61530;51.158;0.880;2023-03-23T14:57:14;996.554;;;13.1875;37.5569
73306;BME280;61530;51.158;0.880;2023-03-23T14:58:17;996.6;;;13.0625;39.126
73306;BME280;61530;51.158;0.880;2023-03-23T14:59:19;996.598;;;13.0625;37.3083
73306;BME280;61530;51.158;0.880;2023-03-23T15:00:33;996.641;;;13.0;39.0243
73306;BME280;61530;51.158;0.880;2023-03-23T15:01:30;996.581;;;13.0;38.0114
73306;BME280;61530;51.158;0.880;2023-03-23T15:02:33;996.611;;;13.0;39.1674
73306;BME280;61530;51.158;0.880;2023-03-23T15:03:38;996.583;;;12.875;37.8398
73306;BME280;61530;51.158;0.880;2023-03-23T15:04:42;996.605;;;12.875;38.6817
73306;BME280;61530;51.158;0.880;2023-03-23T15:05:47;996.546;;;12.8125;38.9941
73306;BME280;61530;51.158;0.880;2023-03-23T15:09:33;996.583;;;12.875;38.4384
73306;BME280;61530;51.158;0.880;2023-03-23T15:10:39;996.483;;;12.75;39.4209
73306;BME280;61530;51.158;0.880;2023-03-23T15:11:53;996.493;;;12.8125;38.2658
73306;BME280;61530;51.158;0.880;2023-03-23T15:12:49;996.521;;;12.8125;38.1571
73306;BME280;61530;51.158;0.880;2023-03-23T15:13:53;996.488;;;12.8125;37.6189
73306;BME280;61530;51.158;0.880;2023-03-23T15:14:57;996.467;;;12.8125;38.8907
73306;BME280;61530;51.158;0.880;2023-03-23T15:16:04;996.481;;;12.875;38.4444
73306;BME280;61530;51.158;0.880;2023-03-23T15:17:04;996.498;;;12.875;38.4106
73306;BME280;61530;51.158;0.880;2023-03-23T15:18:29;996.467;;;12.625;38.3248
73306;BME280;61530;51.158;0.880;2023-03-23T15:19:16;996.422;;;12.5625;38.7744
73306;BME280;61530;51.158;0.880;2023-03-23T15:25:36;996.413;;;12.625;38.9719
73306;BME280;61530;51.158;0.880;2023-03-23T15:26:43;996.369;;;12.5;38.6717
73306;BME280;61530;51.158;0.880;2023-03-23T15:27:48;996.388;;;12.375;38.1927
73306;BME280;61530;51.158;0.880;2023-03-23T15:28:48;996.396;;;12.3125;39.7439
73306;BME280;61530;51.158;0.880;2023-03-23T15:29:54;996.459;;;12.1875;38.6944
73306;BME280;61530;51.158;0.880;2023-03-23T15:30:57;996.387;;;12.25;38.6942
73306;BME280;61530;51.158;0.880;2023-03-23T15:31:59;996.43;;;12.25;39.1553
73306;BME280;61530;51.158;0.880;2023-03-23T15:33:10;996.466;;;12.1875;39.0285
73306;BME280;61530;51.158;0.880;2023-03-23T15:34:16;996.392;;;12.125;40.6302
73306;BME280;61530;51.158;0.880;2023-03-23T15:35:13;996.38;;;11.875;41.464
73306;BME280;61530;51.158;0.880;2023-03-23T15:36:17;996.408;;;11.75;41.4229
73306;BME280;61530;51.158;0.880;2023-03-23T15:37:27;996.385;;;11.6875;41.1187
73306;BME280;61530;51.158;0.880;2023-03-23T15:38:25;996.422;;;11.5625;42.7895
73306;BME280;61530;51.158;0.880;2023-03-23T15:39:28;996.469;;;11.5;43.373
73306;BME280;61530;51.158;0.880;2023-03-23T15:40:34;996.409;;;11.375;44.0558
73306;BME280;61530;51.158;0.880;2023-03-23T15:41:46;996.464;;;11.3125;41.7166
73306;BME280;61530;51.158;0.880;2023-03-23T15:42:40;996.379;;;11.375;42.4105
73306;BME280;61530;51.158;0.880;2023-03-23T15:43:50;996.354;;;11.25;45.3028
73306;BME280;61530;51.158;0.880;2023-03-23T15:44:55;996.364;;;11.1875;45.8412
73306;BME280;61530;51.158;0.880;2023-03-23T15:45:55;996.353;;;11.1875;44.3002
73306;BME280;61530;51.158;0.880;2023-03-23T15:47:15;996.339;;;11.1875;43.2832
73306;BME280;61530;51.158;0.880;2023-03-23T15:48:11;996.22;;;11.1875;43.1851
73306;BME280;61530;51.158;0.880;2023-03-23T15:49:08;996.279;;;11.125;44.3593
73306;BME280;61530;51.158;0.880;2023-03-23T15:50:12;996.253;;;11.0;45.1331
73306;BME280;61530;51.158;0.880;2023-03-23T15:51:12;996.275;;;11.125;43.9799
73306;BME280;61530;51.158;0.880;2023-03-23T15:52:15;996.277;;;11.0625;43.7225
73306;BME280;61530;51.158;0.880;2023-03-23T15:53:27;996.168;;;11.0625;42.6293
73306;BME280;61530;51.158;0.880;2023-03-23T15:54:30;996.235;;;11.0625;41.4806
73306;BME280;61530;51.158;0.880;2023-03-23T15:55:29;996.254;;;11.0625;43.7982
73306;BME280;61530;51.158;0.880;2023-03-23T15:56:32;996.28;;;11.0625;44.0323
73306;BME280;61530;51.158;0.880;2023-03-23T15:57:35;996.188;;;11.0625;43.7247
73306;BME280;61530;51.158;0.880;2023-03-23T15:58:41;996.157;;;11.125;43.364
73306;BME280;61530;51.158;0.880;2023-03-23T15:59:44;996.256;;;11.125;42.6865
73306;BME280;61530;51.158;0.880;2023-03-23T16:00:49;996.19;;;11.125;43.4438
73306;BME280;61530;51.158;0.880;2023-03-23T16:01:51;996.175;;;11.1875;42.8031
73306;BME280;61530;51.158;0.880;2023-03-23T16:02:58;996.173;;;11.125;40.5208
73306;BME280;61530;51.158;0.880;2023-03-23T16:04:04;996.187;;;11.0625;41.3092
73306;BME280;61530;51.158;0.880;2023-03-23T16:05:04;996.145;;;11.0625;41.6876
73306;BME280;61530;51.158;0.880;2023-03-23T16:06:10;996.158;;;11.0;43.2195
73306;BME280;61530;51.158;0.880;2023-03-23T16:07:13;996.098;;;11.0;42.1584
73306;BME280;61530;51.158;0.880;2023-03-23T16:08:16;996.098;;;10.9375;43.4829
73306;BME280;61530;51.158;0.880;2023-03-23T16:09:20;996.085;;;10.875;44.097
73306;BME280;61530;51.158;0.880;2023-03-23T16:10:24;996.106;;;10.875;44.215
73306;BME280;61530;51.158;0.880;2023-03-23T16:11:30;996.076;;;10.875;44.8831
73306;BME280;61530;51.158;0.880;2023-03-23T16:12:32;996.016;;;10.75;42.5931
73306;BME280;61530;51.158;0.880;2023-03-23T16:13:35;996.05;;;10.75;44.8263
73306;BME280;61530;51.158;0.880;2023-03-23T16:14:39;996.019;;;10.6875;45.4189
73306;BME280;61530;51.158;0.880;2023-03-23T16:15:46;996.021;;;10.6875;46.5972
73306;BME280;61530;51.158;0.880;2023-03-23T16:16:49;995.973;;;10.625;46.3331
73306;BME280;61530;51.158;0.880;2023-03-23T16:17:52;995.962;;;10.625;45.6498
73306;BME280;61530;51.158;0.880;2023-03-23T16:18:55;995.957;;;10.5625;43.9282
73306;BME280;61530;51.158;0.880;2023-03-23T16:20:00;995.961;;;10.5;45.4819
73306;BME280;61530;51.158;0.880;2023-03-23T16:21:05;995.934;;;10.5;46.469
73306;BME280;61530;51.158;0.880;2023-03-23T16:22:08;995.924;;;10.5625;46.3364
73306;BME280;61530;51.158;0.880;2023-03-23T16:23:11;995.886;;;10.5;43.4712
73306;BME280;61530;51.158;0.880;2023-03-23T16:24:17;995.875;;;10.4375;44.7624
73306;BME280;61530;51.158;0.880;2023-03-23T16:25:20;995.847;;;10.5;44.1321
73306;BME280;61530;51.158;0.880;2023-03-23T16:26:24;995.826;;;10.5;41.0669
73306;BME280;61530;51.158;0.880;2023-03-23T16:27:27;995.843;;;10.5;43.7262
73306;BME280;61530;51.158;0.880;2023-03-23T16:28:32;995.869;;;10.5;44.1567
73306;BME280;61530;51.158;0.880;2023-03-23T16:29:36;995.871;;;10.4375;44.0727
73306;BME280;61530;51.158;0.880;2023-03-23T16:30:41;995.877;;;10.5;45.202
73306;BME280;61530;51.158;0.880;2023-03-23T16:31:43;995.81;;;10.4375;43.4203
73306;BME280;61530;51.158;0.880;2023-03-23T16:32:49;995.852;;;10.375;44.293
73306;BME280;61530;51.158;0.880;2023-03-23T16:33:52;995.8;;;10.375;45.0481
73306;BME280;61530;51.158;0.880;2023-03-23T16:34:55;995.796;;;10.4375;43.6116
73306;BME280;61530;51.158;0.880;2023-03-23T16:35:59;995.751;;;10.4375;44.4406
73306;BME280;61530;51.158;0.880;2023-03-23T16:37:04;995.751;;;10.4375;40.9461
73306;BME280;61530;51.158;0.880;2023-03-23T16:38:11;995.716;;;10.375;41.9644
73306;BME280;61530;51.158;0.880;2023-03-23T16:39:12;995.774;;;10.3125;42.7062
73306;BME280;61530;51.158;0.880;2023-03-23T16:40:17;995.673;;;10.3125;42.0227
73306;BME280;61530;51.158;0.880;2023-03-23T16:41:20;995.631;;;10.25;41.8566
73306;BME280;61530;51.158;0.880;2023-03-23T16:42:24;995.66;;;10.3125;41.143
73306;BME280;61530;51.158;0.880;2023-03-23T16:43:27;995.68;;;10.375;42.2297
73306;BME280;61530;51.158;0.880;2023-03-23T16:44:31;995.589;;;10.3125;41.9193
73306;BME280;61530;51.158;0.880;2023-03-23T16:45:38;995.628;;;10.25;43.6466
73306;BME280;61530;51.158;0.880;2023-03-23T16:46:40;995.605;;;10.125;42.1599
73306;BME280;61530;51.158;0.880;2023-03-23T16:47:43;995.609;;;10.125;42.061
73306;BME280;61530;51.158;0.880;2023-03-23T16:48:47;995.658;;;10.0;41.8714
73306;BME280;61530;51.158;0.880;2023-03-23T16:49:52;995.626;;;9.9375;42.5947
73306;BME280;61530;51.158;0.880;2023-03-23T16:50:56;995.68;;;9.875;42.7603
73306;BME280;61530;51.158;0.880;2023-03-23T16:51:59;995.651;;;9.8125;44.662
73306;BME280;61530;51.158;0.880;2023-03-23T16:53:03;995.626;;;9.8125;42.8744
73306;BME280;61530;51.158;0.880;2023-03-23T16:54:09;995.614;;;9.8125;42.2656
73306;BME280;61530;51.158;0.880;2023-03-23T16:55:14;995.712;;;9.75;43.3362
73306;BME280;61530;51.158;0.880;2023-03-23T16:56:15;995.758;;;9.6875;47.4845
73306;BME280;61530;51.158;0.880;2023-03-23T16:57:19;995.655;;;9.8125;48.6317
73306;BME280;61530;51.158;0.880;2023-03-23T16:58:24;995.758;;;9.75;47.6718
73306;BME280;61530;51.158;0.880;2023-03-23T16:59:28;995.8;;;9.75;47.1001
73306;BME280;61530;51.158;0.880;2023-03-23T17:00:32;995.8;;;9.875;46.1337
73306;BME280;61530;51.158;0.880;2023-03-23T17:01:35;995.821;;;9.8125;48.1569
73306;BME280;61530;51.158;0.880;2023-03-23T17:02:41;995.741;;;9.8125;48.4772
73306;BME280;61530;51.158;0.880;2023-03-23T17:03:44;995.796;;;9.75;46.9864
73306;BME280;61530;51.158;0.880;2023-03-23T17:04:47;995.74;;;9.8125;44.8579
73306;BME280;61530;51.158;0.880;2023-03-23T17:05:51;995.688;;;9.8125;43.9921
73306;BME280;61530;51.158;0.880;2023-03-23T17:06:56;995.755;;;9.875;46.2387
73306;BME280;61530;51.158;0.880;2023-03-23T17:08:00;995.71;;;9.875;48.222
73306;BME280;61530;51.158;0.880;2023-03-23T17:09:04;995.599;;;9.8125;47.1039
73306;BME280;61530;51.158;0.880;2023-03-23T17:10:09;995.505;;;9.8125;45.695
73306;BME280;61530;51.158;0.880;2023-03-23T17:11:12;995.472;;;9.75;46.9435
73306;BME280;61530;51.158;0.880;2023-03-23T17:12:16;995.366;;;9.75;45.4991
73306;BME280;61530;51.158;0.880;2023-03-23T17:13:19;995.386;;;9.75;46.1071
73306;BME280;61530;51.158;0.880;2023-03-23T17:14:23;995.42;;;9.75;48.1212
73306;BME280;61530;51.158;0.880;2023-03-23T17:15:29;995.371;;;9.75;46.0357
73306;BME280;61530;51.158;0.880;2023-03-23T17:16:32;995.405;;;9.8125;46.8831
73306;BME280;61530;51.158;0.880;2023-03-23T17:17:36;995.422;;;9.8125;46.3685
73306;BME280;61530;51.158;0.880;2023-03-23T17:18:39;995.374;;;9.8125;46.0857
73306;BME280;61530;51.158;0.880;2023-03-23T17:19:44;995.367;;;9.8125;45.4147
73306;BME280;61530;51.158;0.880;2023-03-23T17:20:48;995.32;;;9.8125;46.2248
73306;BME280;61530;51.158;0.880;2023-03-23T17:21:52;995.286;;;9.8125;43.3169
73306;BME280;61530;51.158;0.880;2023-03-23T17:22:55;995.305;;;9.8125;41.8179
73306;BME280;61530;51.158;0.880;2023-03-23T17:24:01;995.299;;;9.75;43.5227
73306;BME280;61530;51.158;0.880;2023-03-23T17:25:05;995.24;;;9.75;44.4254
73306;BME280;61530;51.158;0.880;2023-03-23T17:26:08;995.243;;;9.75;44.515
73306;BME280;61530;51.158;0.880;2023-03-23T17:27:11;995.232;;;9.8125;43.039
73306;BME280;61530;51.158;0.880;2023-03-23T17:28:16;995.184;;;9.8125;44.2122
73306;BME280;61530;51.158;0.880;2023-03-23T17:29:20;995.176;;;9.8125;45.0076
73306;BME280;61530;51.158;0.880;2023-03-23T17:30:23;995.168;;;9.8125;40.5609
73306;BME280;61530;51.158;0.880;2023-03-23T17:31:27;995.118;;;9.8125;42.9872
73306;BME280;61530;51.158;0.880;2023-03-23T17:32:33;995.08;;;9.8125;41.5612
73306;BME280;61530;51.158;0.880;2023-03-23T17:33:36;995.085;;;9.875;42.7672
73306;BME280;61530;51.158;0.880;2023-03-23T17:34:40;995.057;;;9.875;45.0702
73306;BME280;61530;51.158;0.880;2023-03-23T17:35:45;995.016;;;9.875;42.6528
73306;BME280;61530;51.158;0.880;2023-03-23T17:36:48;995.056;;;9.8125;43.5642
73306;BME280;61530;51.158;0.880;2023-03-23T17:37:52;995.034;;;9.75;43.1292
73306;BME280;61530;51.158;0.880;2023-03-23T17:38:55;995.084;;;9.9375;42.9918
73306;BME280;61530;51.158;0.880;2023-03-23T17:39:59;995.088;;;9.875;41.9584
73306;BME280;61530;51.158;0.880;2023-03-23T17:41:05;995.131;;;9.8125;41.6069
73306;BME280;61530;51.158;0.880;2023-03-23T17:42:08;995.023;;;9.875;41.8021
73306;BME280;61530;51.158;0.880;2023-03-23T17:43:11;995.032;;;9.8125;44.8674
73306;BME280;61530;51.158;0.880;2023-03-23T17:44:15;994.966;;;9.75;44.4654
73306;BME280;61530;51.158;0.880;2023-03-23T17:45:20;994.999;;;9.75;44.2988
73306;BME280;61530;51.158;0.880;2023-03-23T17:46:24;994.995;;;9.6875;46.6456
73306;BME280;61530;51.158;0.880;2023-03-23T17:47:27;994.969;;;9.75;46.5617
73306;BME280;61530;51.158;0.880;2023-03-23T17:48:31;995.01;;;9.6875;45.4666
73306;BME280;61530;51.158;0.880;2023-03-23T17:49:37;995.056;;;9.625;43.7541
73306;BME280;61530;51.158;0.880;2023-03-23T17:50:40;995.047;;;9.6875;43.8726
73306;BME280;61530;51.158;0.880;2023-03-23T17:51:44;995.015;;;9.6875;44.8824
73306;BME280;61530;51.158;0.880;2023-03-23T17:52:47;995.048;;;9.625;43.3707
73306;BME280;61530;51.158;0.880;2023-03-23T17:53:52;995.094;;;9.8125;45.3547
73306;BME280;61530;51.158;0.880;2023-03-23T17:54:56;995.019;;;9.75;44.1202
73306;BME280;61530;51.158;0.880;2023-03-23T17:56:00;994.998;;;9.75;44.7099
73306;BME280;61530;51.158;0.880;2023-03-23T17:57:03;994.965;;;9.75;43.3711
73306;BME280;61530;51.158;0.880;2023-03-23T17:58:09;994.994;;;9.625;45.2089
73306;BME280;61530;51.158;0.880;2023-03-23T17:59:12;995.007;;;9.625;42.0127
73306;BME280;61530;51.158;0.880;2023-03-23T18:00:16;994.994;;;9.6875;44.5471
73306;BME280;61530;51.158;0.880;2023-03-23T18:01:19;994.84;;;9.625;43.5098
73306;BME280;61530;51.158;0.880;2023-03-23T18:02:24;994.838;;;9.6875;44.7871
73306;BME280;61530;51.158;0.880;2023-03-23T18:03:28;994.809;;;9.625;44.1421
73306;BME280;61530;51.158;0.880;2023-03-23T18:04:31;994.779;;;9.6875;49.5086
73306;BME280;61530;51.158;0.880;2023-03-23T18:05:35;994.838;;;9.75;47.2994
73306;BME280;61530;51.158;0.880;2023-03-23T18:06:41;994.796;;;9.6875;45.8791
73306;BME280;61530;51.158;0.880;2023-03-23T18:07:44;994.774;;;9.6875;43.8155
73306;BME280;61530;51.158;0.880;2023-03-23T18:08:47;994.784;;;9.6875;44.1945
73306;BME280;61530;51.158;0.880;2023-03-23T18:09:51;994.749;;;9.6875;44.4453
73306;BME280;61530;51.158;0.880;2023-03-23T18:10:57;994.734;;;9.625;45.2705
73306;BME280;61530;51.158;0.880;2023-03-23T18:12:00;994.693;;;9.625;43.7793
73306;BME280;61530;51.158;0.880;2023-03-23T18:13:05;994.661;;;9.6875;45.2485
73306;BME280;61530;51.158;0.880;2023-03-23T18:14:07;994.716;;;9.625;47.7849
73306;BME280;61530;51.158;0.880;2023-03-23T18:15:13;994.681;;;9.625;43.9995
73306;BME280;61530;51.158;0.880;2023-03-23T18:16:16;994.652;;;9.6875;45.6581
73306;BME280;61530;51.158;0.880;2023-03-23T18:17:19;994.658;;;9.6875;46.0265
73306;BME280;61530;51.158;0.880;2023-03-23T18:18:24;994.67;;;9.625;46.1761
73306;BME280;61530;51.158;0.880;2023-03-23T18:19:28;994.647;;;9.5625;45.2022
73306;BME280;61530;51.158;0.880;2023-03-23T18:20:32;994.623;;;9.5625;43.1911
73306;BME280;61530;51.158;0.880;2023-03-23T18:21:36;994.578;;;9.625;45.2053
73306;BME280;61530;51.158;0.880;2023-03-23T18:22:39;994.594;;;9.5625;44.7372
73306;BME280;61530;51.158;0.880;2023-03-23T18:23:44;994.594;;;9.5625;45.6778
73306;BME280;61530;51.158;0.880;2023-03-23T18:24:48;994.539;;;9.625;44.6897
73306;BME280;61530;51.158;0.880;2023-03-23T18:25:52;994.516;;;9.5;44.9426
73306;BME280;61530;51.158;0.880;2023-03-23T18:26:55;994.52;;;9.5625;45.1198
73306;BME280;61530;51.158;0.880;2023-03-23T18:28:00;994.43;;;9.5625;44.1135
73306;BME280;61530;51.158;0.880;2023-03-23T18:29:04;994.508;;;9.5625;48.4364
73306;BME280;61530;51.158;0.880;2023-03-23T18:30:09;994.498;;;9.5625;44.9627
73306;BME280;61530;51.158;0.880;2023-03-23T18:31:12;994.465;;;9.5625;44.774
73306;BME280;61530;51.158;0.880;2023-03-23T18:32:16;994.4;;;9.5625;46.1402
73306;BME280;61530;51.158;0.880;2023-03-23T18:33:21;994.357;;;9.625;44.3524
73306;BME280;61530;51.158;0.880;2023-03-23T18:34:23;994.382;;;9.5625;46.2385
73306;BME280;61530;51.158;0.880;2023-03-23T18:35:27;994.374;;;9.4375;46.8381
73306;BME280;61530;51.158;0.880;2023-03-23T18:36:33;994.367;;;9.4375;46.2319
73306;BME280;61530;51.158;0.880;2023-03-23T18:37:36;994.362;;;9.5;46.1375
73306;BME280;61530;51.158;0.880;2023-03-23T18:38:40;994.366;;;9.4375;47.9044
73306;BME280;61530;51.158;0.880;2023-03-23T18:39:43;994.331;;;9.5625;49.1001
73306;BME280;61530;51.158;0.880;2023-03-23T18:40:49;994.322;;;9.4375;47.291
73306;BME280;61530;51.158;0.880;2023-03-23T18:41:52;994.296;;;9.4375;47.5274
73306;BME280;61530;51.158;0.880;2023-03-23T18:42:55;994.306;;;9.4375;46.0271
73306;BME280;61530;51.158;0.880;2023-03-23T18:43:59;994.271;;;9.375;47.1034
73306;BME280;61530;51.158;0.880;2023-03-23T18:45:05;994.257;;;9.5;45.1797
73306;BME280;61530;51.158;0.880;2023-03-23T18:46:08;994.266;;;9.4375;44.4533
73306;BME280;61530;51.158;0.880;2023-03-23T18:47:12;994.255;;;9.5625;44.7301
73306;BME280;61530;51.158;0.880;2023-03-23T18:48:15;994.209;;;9.5;46.7325
73306;BME280;61530;51.158;0.880;2023-03-23T18:49:20;994.18;;;9.5625;46.1771
73306;BME280;61530;51.158;0.880;2023-03-23T18:50:24;994.199;;;9.5625;44.255
73306;BME280;61530;51.158;0.880;2023-03-23T18:51:27;994.112;;;9.5625;44.9939
73306;BME280;61530;51.158;0.880;2023-03-23T18:52:31;994.191;;;9.5625;46.7382
73306;BME280;61530;51.158;0.880;2023-03-23T18:53:36;994.175;;;9.5625;47.7287
73306;BME280;61530;51.158;0.880;2023-03-23T18:54:40;994.245;;;9.5;47.1155
73306;BME280;61530;51.158;0.880;2023-03-23T18:55:44;994.185;;;9.5625;47.7387
73306;BME280;61530;51.158;0.880;2023-03-23T18:56:47;994.217;;;9.625;45.4195
73306;BME280;61530;51.158;0.880;2023-03-23T18:57:52;994.134;;;9.5625;45.916
73306;BME280;61530;51.158;0.880;2023-03-23T18:58:56;994.178;;;9.5625;47.0084
73306;BME280;61530;51.158;0.880;2023-03-23T19:00:00;994.125;;;9.5;47.1697
73306;BME280;61530;51.158;0.880;2023-03-23T19:01:05;994.081;;;9.4375;47.6669
73306;BME280;61530;51.158;0.880;2023-03-23T19:02:09;994.128;;;9.375;47.3192
73306;BME280;61530;51.158;0.880;2023-03-23T19:03:13;994.174;;;9.4375;49.0945
73306;BME280;61530;51.158;0.880;2023-03-23T19:04:16;994.123;;;9.375;49.2087
73306;BME280;61530;51.158;0.880;2023-03-23T19:05:19;994.038;;;9.375;50.4285
73306;BME280;61530;51.158;0.880;2023-03-23T19:06:26;993.941;;;9.375;46.8368
73306;BME280;61530;51.158;0.880;2023-03-23T19:07:28;994.051;;;9.4375;50.5846
73306;BME280;61530;51.158;0.880;2023-03-23T19:08:32;993.932;;;9.375;49.3993
73306;BME280;61530;51.158;0.880;2023-03-23T19:09:35;993.892;;;9.3125;49.8924
73306;BME280;61530;51.158;0.880;2023-03-23T19:10:41;993.892;;;9.3125;49.1432
73306;BME280;61530;51.158;0.880;2023-03-23T19:11:45;993.918;;;9.3125;49.0962
73306;BME280;61530;51.158;0.880;2023-03-23T19:12:48;993.913;;;9.375;49.3476
73306;BME280;61530;51.158;0.880;2023-03-23T19:13:51;993.867;;;9.375;48.079
73306;BME280;61530;51.158;0.880;2023-03-23T19:14:56;993.863;;;9.3125;48.572
73306;BME280;61530;51.158;0.880;2023-03-23T19:16:00;993.914;;;9.25;50.7518
73306;BME280;61530;51.158;0.880;2023-03-23T19:17:04;993.855;;;9.3125;49.6617
73306;BME280;61530;51.158;0.880;2023-03-23T19:18:07;993.864;;;9.25;50.2694
73306;BME280;61530;51.158;0.880;2023-03-23T19:19:12;993.862;;;9.375;52.3505
73306;BME280;61530;51.158;0.880;2023-03-23T19:20:16;993.749;;;9.25;51.3993
73306;BME280;61530;51.158;0.880;2023-03-23T19:21:19;993.841;;;9.3125;52.9701
73306;BME280;61530;51.158;0.880;2023-03-23T19:22:23;993.722;;;9.25;50.6592
73306;BME280;61530;51.158;0.880;2023-03-23T19:23:29;993.719;;;9.1875;53.6066
73306;BME280;61530;51.158;0.880;2023-03-23T19:24:32;993.692;;;9.1875;51.9517
73306;BME280;61530;51.158;0.880;2023-03-23T19:25:35;993.756;;;9.1875;51.9114
73306;BME280;61530;51.158;0.880;2023-03-23T19:26:41;993.726;;;9.1875;54.5473
73306;BME280;61530;51.158;0.880;2023-03-23T19:27:44;993.745;;;9.1875;54.3729
73306;BME280;61530;51.158;0.880;2023-03-23T19:28:48;993.703;;;9.125;55.4208
73306;BME280;61530;51.158;0.880;2023-03-23T19:29:51;993.774;;;9.0625;54.0221
73306;BME280;61530;51.158;0.880;2023-03-23T19:30:56;993.677;;;9.0625;53.2682
73306;BME280;61530;51.158;0.880;2023-03-23T19:32:00;993.758;;;9.0625;52.0691
73306;BME280;61530;51.158;0.880;2023-03-23T19:33:04;993.634;;;9.0;51.4993
73306;BME280;61530;51.158;0.880;2023-03-23T19:34:08;993.574;;;9.125;50.2893
73306;BME280;61530;51.158;0.880;2023-03-23T19:35:11;993.665;;;9.0625;49.2419
73306;BME280;61530;51.158;0.880;2023-03-23T19:36:16;993.709;;;9.0;49.2767
73306;BME280;61530;51.158;0.880;2023-03-23T19:37:20;993.586;;;9.0;49.9142
73306;BME280;61530;51.158;0.880;2023-03-23T19:38:23;993.587;;;9.0625;51.3003
73306;BME280;61530;51.158;0.880;2023-03-23T19:39:27;993.659;;;9.125;48.8351
73306;BME280;61530;51.158;0.880;2023-03-23T19:40:33;993.703;;;9.0;51.9542
73306;BME280;61530;51.158;0.880;2023-03-23T19:41:36;993.628;;;9.0625;50.9178
73306;BME280;61530;51.158;0.880;2023-03-23T19:42:39;993.614;;;9.0625;50.7243
73306;BME280;61530;51.158;0.880;2023-03-23T19:43:43;993.673;;;9.0625;51.5612
73306;BME280;61530;51.158;0.880;2023-03-23T19:44:48;993.505;;;9.0625;50.4872
73306;BME280;61530;51.158;0.880;2023-03-23T19:45:52;993.52;;;9.125;51.1818
73306;BME280;61530;51.158;0.880;2023-03-23T19:46:56;993.567;;;9.0;48.4875
73306;BME280;61530;51.158;0.880;2023-03-23T19:47:59;993.574;;;9.0625;50.4101
73306;BME280;61530;51.158;0.880;2023-03-23T19:49:04;993.498;;;9.0625;49.2764
73306;BME280;61530;51.158;0.880;2023-03-23T19:50:08;993.513;;;9.0;47.7611
73306;BME280;61530;51.158;0.880;2023-03-23T19:51:12;993.441;;;9.0;48.4957
73306;BME280;61530;51.158;0.880;2023-03-23T19:52:15;993.548;;;9.0;48.4809
73306;BME280;61530;51.158;0.880;2023-03-23T19:53:20;993.472;;;9.0;49.3937
73306;BME280;61530;51.158;0.880;2023-03-23T19:54:24;993.479;;;9.0625;49.4595
73306;BME280;61530;51.158;0.880;2023-03-23T19:55:27;993.414;;;8.9375;50.5265
73306;BME280;61530;51.158;0.880;2023-03-23T19:56:31;993.451;;;9.0625;50.0174
73306;BME280;61530;51.158;0.880;2023-03-23T19:57:36;993.419;;;9.0625;48.5963
73306;BME280;61530;51.158;0.880;2023-03-23T19:58:40;993.36;;;9.0625;49.1738
73306;BME280;61530;51.158;0.880;2023-03-23T19:59:43;993.371;;;9.0;49.7838
73306;BME280;61530;51.158;0.880;2023-03-23T20:00:47;993.355;;;9.0;51.6052
73306;BME280;61530;51.158;0.880;2023-03-23T20:01:52;993.26;;;9.0;50.6032
73306;BME280;61530;51.158;0.880;2023-03-23T20:02:56;993.285;;;9.0625;51.1508
73306;BME280;61530;51.158;0.880;2023-03-23T20:03:59;993.237;;;9.0;48.602
73306;BME280;61530;51.158;0.880;2023-03-23T20:05:03;993.217;;;9.0625;50.4937
73306;BME280;61530;51.158;0.880;2023-03-23T20:06:11;993.122;;;9.0625;50.7855
73306;BME280;61530;51.158;0.880;2023-03-23T20:07:12;993.15;;;9.0625;50.3906
73306;BME280;61530;51.158;0.880;2023-03-23T20:08:15;993.083;;;9.0625;48.5735
73306;BME280;61530;51.158;0.880;2023-03-23T20:09:19;993.12;;;9.0625;51.5789
73306;BME280;61530;51.158;0.880;2023-03-23T20:10:24;993.055;;;9.0625;50.5556